Jp Tsubaki — JD2817 — position and weather

sailwx.info

Track history (hours):
 
Tides and Currents Weather Stations Pressure Air Temp Water Temp Dewpoint Dewpoint Depression Visibility Wind Speed Wind Dir Waves Ship Positions

Jp Tsubaki

Last reported at 2016-Aug-25 15:32 UTC. Time now 2016-Aug-25 16:39 UTC.
Position N 35°22' E 139°44'.

Length 115 m; draft 4.4 m.

Type: Cargo ship. MMSI: 431000734.

Date/timePositionNaut miles runAvg speedWind from/ knotsBaromVisibWave heightAir tempDewpointWater temp
2016-Aug-25 15:32N 35°22' E 139°44'0 0.0
2016-Aug-25 14:32N 35°22' E 139°44'0 0.0
2016-Aug-25 13:29N 35°22' E 139°44'0 0.0
2016-Aug-25 12:32N 35°22' E 139°44'0 0.0
2016-Aug-25 11:32N 35°22' E 139°44'1 0.8
2016-Aug-25 10:33N 35°23' E 139°43'4 3.8
2016-Aug-25 09:29N 35°24' E 139°39'0 0.0
2016-Aug-25 08:29N 35°24' E 139°39'0 0.0
2016-Aug-25 07:29N 35°24' E 139°39'0 0.2
2016-Aug-25 06:33N 35°24' E 139°38'8 3.8
2016-Aug-25 04:33N 35°30' E 139°44'0 0.0
2016-Aug-25 03:32N 35°30' E 139°44'0 0.0
2016-Aug-25 02:32N 35°30' E 139°44'0 0.0
2016-Aug-25 01:32N 35°30' E 139°44'0 0.0
2016-Aug-25 00:32N 35°30' E 139°44'0 0.0
2016-Aug-24 23:32N 35°30' E 139°44'0 0.0
2016-Aug-24 22:32N 35°30' E 139°44'0 0.0
2016-Aug-24 21:32N 35°30' E 139°44'0 0.0
2016-Aug-24 20:32N 35°30' E 139°44'0 0.0
2016-Aug-24 19:32N 35°30' E 139°44'0 0.0
2016-Aug-24 18:32N 35°30' E 139°44'0 0.0
2016-Aug-24 17:32N 35°30' E 139°44'0 0.0
2016-Aug-24 16:32N 35°30' E 139°44'0 0.0
2016-Aug-24 15:32N 35°30' E 139°44'2 2.0
2016-Aug-24 14:33N 35°29' E 139°42'5 5.4
2016-Aug-24 13:33N 35°24' E 139°39'1 0.6
2016-Aug-24 12:32N 35°24' E 139°39'0 0.1
2016-Aug-24 11:32N 35°24' E 139°39'0 0.0
2016-Aug-24 10:32N 35°24' E 139°39'0 0.0
2016-Aug-24 09:29N 35°24' E 139°39'0 0.0
2016-Aug-24 08:32N 35°24' E 139°39'0 0.2
2016-Aug-24 07:33N 35°24' E 139°38'8 8.1
2016-Aug-24 06:33N 35°28' E 139°47'3 1.4
2016-Aug-24 04:33N 35°30' E 139°44'0 0.1
2016-Aug-24 03:33N 35°30' E 139°44'0 0.0
2016-Aug-24 02:33N 35°30' E 139°44'0 0.0
2016-Aug-24 01:33N 35°30' E 139°44'0 0.0
2016-Aug-24 00:33N 35°30' E 139°44'0 0.0
2016-Aug-23 23:33N 35°30' E 139°44'0 0.0
2016-Aug-23 22:33N 35°30' E 139°44'0 0.0
2016-Aug-23 21:30N 35°30' E 139°44'1 1.4
2016-Aug-23 20:33N 35°29' E 139°43'6 5.6
2016-Aug-23 19:31N 35°24' E 139°45'0 0.0
2016-Aug-23 18:31N 35°24' E 139°45'0 0.0
2016-Aug-23 17:31N 35°24' E 139°45'0 0.0
2016-Aug-23 16:31N 35°24' E 139°45'2 2.0
2016-Aug-23 15:33N 35°24' E 139°43'4 3.6
2016-Aug-23 14:30N 35°24' E 139°39'0 0.0
2016-Aug-23 13:33N 35°24' E 139°39'0 0.0
2016-Aug-23 12:33N 35°24' E 139°39'0 0.0
2016-Aug-23 11:33N 35°24' E 139°39'0 0.0
2016-Aug-23 10:30N 35°24' E 139°39'0 0.0
2016-Aug-23 09:33N 35°24' E 139°39'5 5.0
2016-Aug-23 08:33N 35°26' E 139°44'4 3.7
2016-Aug-23 07:33N 35°30' E 139°43'0 0.2
2016-Aug-23 06:33N 35°30' E 139°43'0 0.0
2016-Aug-23 05:33N 35°30' E 139°43'0 0.0
2016-Aug-23 04:33N 35°30' E 139°43'0 0.0
2016-Aug-23 03:33N 35°30' E 139°43'0 0.0
2016-Aug-23 02:33N 35°30' E 139°43'0 0.0
2016-Aug-23 01:33N 35°30' E 139°43'5 4.7
2016-Aug-23 00:33N 35°27' E 139°48'2 2.2
2016-Aug-22 23:32N 35°27' E 139°51'0 0.0
2016-Aug-22 22:32N 35°27' E 139°51'0 0.0
2016-Aug-22 21:32N 35°27' E 139°51'0 0.0
2016-Aug-22 20:29N 35°27' E 139°51'0 0.1
2016-Aug-22 19:32N 35°27' E 139°51'0 0.0
2016-Aug-22 18:32N 35°27' E 139°51'0 0.0
2016-Aug-22 17:32N 35°27' E 139°51'0 0.0
2016-Aug-22 16:32N 35°27' E 139°51'0 0.0
2016-Aug-22 15:32N 35°27' E 139°51'0 0.1
2016-Aug-22 14:33N 35°27' E 139°51'0 0.0
2016-Aug-22 13:31N 35°27' E 139°51'0 0.0
2016-Aug-22 12:32N 35°27' E 139°51'0 0.0
2016-Aug-22 11:33N 35°27' E 139°51'0 0.0
2016-Aug-22 10:33N 35°27' E 139°51'0 0.0
2016-Aug-22 09:32N 35°27' E 139°51'0 0.0
2016-Aug-22 08:27N 35°27' E 139°51'0 0.0
2016-Aug-22 07:31N 35°27' E 139°51'0 0.0
2016-Aug-22 06:34N 35°27' E 139°51'0 0.1
2016-Aug-22 05:31N 35°27' E 139°51'0 0.3
2016-Aug-22 04:33N 35°27' E 139°50'0 0.0
2016-Aug-22 03:26N 35°27' E 139°50'0 0.0
2016-Aug-22 02:31N 35°27' E 139°50'0 0.0
2016-Aug-22 01:33N 35°27' E 139°50'0 0.0
2016-Aug-22 00:32N 35°27' E 139°50'0 0.0
2016-Aug-21 23:33N 35°27' E 139°50'0 0.0
2016-Aug-21 22:31N 35°27' E 139°50'0 0.0
2016-Aug-21 21:32N 35°27' E 139°50'0 0.1
2016-Aug-21 20:32N 35°27' E 139°50'0 0.0
2016-Aug-21 19:33N 35°27' E 139°50'0 0.0
2016-Aug-21 18:33N 35°27' E 139°50'0 0.1
2016-Aug-21 17:33N 35°27' E 139°50'0 0.0
2016-Aug-21 16:30N 35°27' E 139°50'0 0.1
2016-Aug-21 15:33N 35°27' E 139°50'0 0.0
2016-Aug-21 14:30N 35°27' E 139°50'0 0.0
2016-Aug-21 13:29N 35°27' E 139°50'0 0.0
2016-Aug-21 12:32N 35°27' E 139°50'0 0.0
2016-Aug-21 11:32N 35°27' E 139°50'0 0.0
2016-Aug-21 10:32N 35°27' E 139°50'0 0.1
2016-Aug-21 09:32N 35°27' E 139°51'0 0.0
2016-Aug-21 08:32N 35°27' E 139°51'0 0.0
2016-Aug-21 07:32N 35°27' E 139°51'0 0.3
2016-Aug-21 06:33N 35°27' E 139°50'9 9.4
2016-Aug-21 05:33N 35°24' E 139°39'1 0.7
2016-Aug-21 04:33N 35°24' E 139°39'0 0.0
2016-Aug-21 03:33N 35°24' E 139°39'0 0.0
2016-Aug-21 02:33N 35°24' E 139°39'0 0.0
2016-Aug-21 01:30N 35°24' E 139°39'0 0.0
2016-Aug-21 00:33N 35°24' E 139°39'0 0.0
2016-Aug-20 23:33N 35°24' E 139°39'1 1.2
2016-Aug-20 22:33N 35°24' E 139°40'0 0.0
2016-Aug-20 21:31N 35°24' E 139°40'0 0.0
2016-Aug-20 20:31N 35°24' E 139°40'0 0.0
2016-Aug-20 19:31N 35°24' E 139°40'0 0.0
2016-Aug-20 18:31N 35°24' E 139°40'0 0.0
2016-Aug-20 17:31N 35°24' E 139°40'0 0.0
2016-Aug-20 16:31N 35°24' E 139°40'0 0.0
2016-Aug-20 15:31N 35°24' E 139°40'0 0.0
2016-Aug-20 14:31N 35°24' E 139°40'1 1.2
2016-Aug-20 13:33N 35°24' E 139°39'0 0.1
2016-Aug-20 12:33N 35°24' E 139°39'0 0.1
2016-Aug-20 11:33N 35°24' E 139°39'0 0.0
2016-Aug-20 10:33N 35°24' E 139°39'0 0.0
2016-Aug-20 09:33N 35°24' E 139°39'0 0.0
2016-Aug-20 08:33N 35°24' E 139°39'0 0.0
2016-Aug-20 07:33N 35°24' E 139°39'0 0.0
2016-Aug-20 06:33N 35°24' E 139°39'0 0.0
2016-Aug-20 05:30N 35°24' E 139°39'0 0.0
2016-Aug-20 04:33N 35°24' E 139°39'0 0.0
2016-Aug-20 03:33N 35°24' E 139°39'0 0.0
2016-Aug-20 02:33N 35°24' E 139°39'0 0.0
2016-Aug-20 01:30N 35°24' E 139°39'0 0.0
2016-Aug-20 00:33N 35°24' E 139°39'0 0.0
2016-Aug-19 23:33N 35°24' E 139°39'0 0.0
2016-Aug-19 22:33N 35°24' E 139°39'0 0.0
2016-Aug-19 21:33N 35°24' E 139°39'0 0.0
2016-Aug-19 20:33N 35°24' E 139°39'0 0.0
2016-Aug-19 19:33N 35°24' E 139°39'0 0.0
2016-Aug-19 18:33N 35°24' E 139°39'0 0.0
2016-Aug-19 17:33N 35°24' E 139°39'0 0.0
2016-Aug-19 16:33N 35°24' E 139°39'0 0.0
2016-Aug-19 15:33N 35°24' E 139°39'0 0.0
2016-Aug-19 14:33N 35°24' E 139°39'0 0.0
2016-Aug-19 13:33N 35°24' E 139°39'3 2.7
2016-Aug-19 12:33N 35°24' E 139°42'7 7.3
2016-Aug-19 11:33N 35°27' E 139°50'0 0.0
2016-Aug-19 10:32N 35°27' E 139°50'0 0.0
2016-Aug-19 09:32N 35°27' E 139°50'0 0.0
2016-Aug-19 08:32N 35°27' E 139°50'0 0.0
2016-Aug-19 07:32N 35°27' E 139°50'0 0.0
2016-Aug-19 06:32N 35°27' E 139°50'0 0.0
2016-Aug-19 05:32N 35°27' E 139°50'0 0.0
2016-Aug-19 04:32N 35°27' E 139°50'0 0.0
2016-Aug-19 03:32N 35°27' E 139°50'0 0.0
2016-Aug-19 02:32N 35°27' E 139°50'0 0.0
2016-Aug-19 01:32N 35°27' E 139°50'0 0.0
2016-Aug-19 00:32N 35°27' E 139°50'0 0.0
2016-Aug-18 23:32N 35°27' E 139°50'0 0.0
2016-Aug-18 22:32N 35°27' E 139°50'0 0.0
2016-Aug-18 21:32N 35°27' E 139°50'0 0.1
2016-Aug-18 20:32N 35°27' E 139°50'0 0.1
2016-Aug-18 19:32N 35°27' E 139°50'0 0.0
2016-Aug-18 18:29N 35°27' E 139°50'0 0.0
2016-Aug-18 17:29N 35°27' E 139°50'0 0.1
2016-Aug-18 16:32N 35°27' E 139°50'0 0.0
2016-Aug-18 15:32N 35°27' E 139°50'0 0.0
2016-Aug-18 14:32N 35°27' E 139°50'0 0.0
2016-Aug-18 13:32N 35°27' E 139°50'0 0.0
2016-Aug-18 12:32N 35°27' E 139°50'0 0.0
2016-Aug-18 11:32N 35°27' E 139°50'0 0.0
2016-Aug-18 10:32N 35°27' E 139°50'0 0.0
2016-Aug-18 09:32N 35°27' E 139°50'0 0.1
2016-Aug-18 08:32N 35°27' E 139°50'0 0.1
2016-Aug-18 07:32N 35°27' E 139°50'0 0.0
2016-Aug-18 06:32N 35°27' E 139°50'0 0.0
2016-Aug-18 05:32N 35°27' E 139°50'0 0.0
2016-Aug-18 04:32N 35°27' E 139°50'0 0.0
2016-Aug-18 03:32N 35°27' E 139°50'0 0.0
2016-Aug-18 02:32N 35°27' E 139°50'0 0.0
2016-Aug-18 01:32N 35°27' E 139°50'0 0.1
2016-Aug-18 00:32N 35°27' E 139°50'0 0.0
2016-Aug-17 23:32N 35°27' E 139°50'0 0.0
2016-Aug-17 22:32N 35°27' E 139°50'0 0.1
2016-Aug-17 21:32N 35°27' E 139°50'0 0.0
2016-Aug-17 20:29N 35°27' E 139°50'0 0.1
2016-Aug-17 19:32N 35°27' E 139°50'0 0.0
2016-Aug-17 18:32N 35°27' E 139°50'0 0.0
2016-Aug-17 17:32N 35°27' E 139°50'0 0.0
2016-Aug-17 16:32N 35°27' E 139°50'0 0.0
2016-Aug-17 15:29N 35°27' E 139°50'0 0.0
2016-Aug-17 14:32N 35°27' E 139°50'0 0.0
2016-Aug-17 13:32N 35°27' E 139°50'0 0.0
2016-Aug-17 12:33N 35°27' E 139°50'0 0.0
2016-Aug-17 11:33N 35°27' E 139°50'0 0.0
2016-Aug-17 10:32N 35°27' E 139°50'0 0.0
2016-Aug-17 09:33N 35°27' E 139°50'0 0.0
2016-Aug-17 08:33N 35°27' E 139°50'0 0.0
2016-Aug-17 07:29N 35°27' E 139°50'0 0.0
2016-Aug-17 06:33N 35°27' E 139°50'0 0.0
2016-Aug-17 05:33N 35°27' E 139°50'0 0.0
2016-Aug-17 04:33N 35°27' E 139°50'0 0.0
2016-Aug-17 03:33N 35°27' E 139°50'0 0.0
2016-Aug-17 02:34N 35°27' E 139°50'0 0.0
2016-Aug-17 01:29N 35°27' E 139°50'0 0.0
2016-Aug-17 00:32N 35°27' E 139°50'0 0.1
2016-Aug-16 23:32N 35°27' E 139°50'0 0.1
2016-Aug-16 22:32N 35°27' E 139°50'0 0.0
2016-Aug-16 21:29N 35°27' E 139°50'0 0.1
2016-Aug-16 20:33N 35°27' E 139°50'0 0.0
2016-Aug-16 19:32N 35°27' E 139°50'0 0.1
2016-Aug-16 18:33N 35°27' E 139°50'0 0.0
2016-Aug-16 17:33N 35°27' E 139°50'0 0.0
2016-Aug-16 16:32N 35°27' E 139°50'0 0.1
2016-Aug-16 15:33N 35°27' E 139°50'0 0.0
2016-Aug-16 14:33N 35°27' E 139°50'0 0.0
2016-Aug-16 13:33N 35°27' E 139°50'0 0.0
2016-Aug-16 12:33N 35°27' E 139°50'0 0.1
2016-Aug-16 11:33N 35°27' E 139°50'0 0.0
2016-Aug-16 10:33N 35°27' E 139°50'0 0.0
2016-Aug-16 09:33N 35°27' E 139°50'0 0.0
2016-Aug-16 08:33N 35°27' E 139°50'0 0.0
2016-Aug-16 07:33N 35°27' E 139°50'0 0.0
2016-Aug-16 06:33N 35°27' E 139°50'6 2.8
2016-Aug-16 04:33N 35°30' E 139°45'1 1.3
2016-Aug-16 03:32N 35°30' E 139°43'0 0.0
2016-Aug-16 02:29N 35°30' E 139°43'0 0.0
2016-Aug-16 01:32N 35°30' E 139°43'0 0.0
2016-Aug-16 00:32N 35°30' E 139°43'0 0.0
2016-Aug-15 23:32N 35°30' E 139°43'0 0.5
2016-Aug-15 22:33N 35°29' E 139°43'5 5.1
2016-Aug-15 21:33N 35°24' E 139°45'1 1.5
2016-Aug-15 20:33N 35°23' E 139°44'0 0.1
2016-Aug-15 19:33N 35°23' E 139°44'0 0.1
2016-Aug-15 18:33N 35°23' E 139°44'0 0.0
2016-Aug-15 17:33N 35°23' E 139°44'0 0.0
2016-Aug-15 16:33N 35°23' E 139°44'0 0.0
2016-Aug-15 15:33N 35°23' E 139°44'  
Track history (hours):
 
Tides and Currents Weather Stations Pressure Air Temp Water Temp Dewpoint Dewpoint Depression Visibility Wind Speed Wind Dir Waves Ship Positions

Jp Tsubaki

Last reported at 2016-Aug-25 15:32 UTC. Time now 2016-Aug-25 16:39 UTC.
Position N 35°22' E 139°44'.

Length 115 m; draft 4.4 m.

Type: Cargo ship. MMSI: 431000734.

Date/timePositionNaut miles runAvg speedWind from/ knotsBaromVisibWave heightAir tempDewpointWater temp
2016-Aug-25 15:32N 35°22' E 139°44'0 0.0
2016-Aug-25 14:32N 35°22' E 139°44'0 0.0
2016-Aug-25 13:29N 35°22' E 139°44'0 0.0
2016-Aug-25 12:32N 35°22' E 139°44'0 0.0
2016-Aug-25 11:32N 35°22' E 139°44'1 0.8
2016-Aug-25 10:33N 35°23' E 139°43'4 3.8
2016-Aug-25 09:29N 35°24' E 139°39'0 0.0
2016-Aug-25 08:29N 35°24' E 139°39'0 0.0
2016-Aug-25 07:29N 35°24' E 139°39'0 0.2
2016-Aug-25 06:33N 35°24' E 139°38'8 3.8
2016-Aug-25 04:33N 35°30' E 139°44'0 0.0
2016-Aug-25 03:32N 35°30' E 139°44'0 0.0
2016-Aug-25 02:32N 35°30' E 139°44'0 0.0
2016-Aug-25 01:32N 35°30' E 139°44'0 0.0
2016-Aug-25 00:32N 35°30' E 139°44'0 0.0
2016-Aug-24 23:32N 35°30' E 139°44'0 0.0
2016-Aug-24 22:32N 35°30' E 139°44'0 0.0
2016-Aug-24 21:32N 35°30' E 139°44'0 0.0
2016-Aug-24 20:32N 35°30' E 139°44'0 0.0
2016-Aug-24 19:32N 35°30' E 139°44'0 0.0
2016-Aug-24 18:32N 35°30' E 139°44'0 0.0
2016-Aug-24 17:32N 35°30' E 139°44'0 0.0
2016-Aug-24 16:32N 35°30' E 139°44'0 0.0
2016-Aug-24 15:32N 35°30' E 139°44'2 2.0
2016-Aug-24 14:33N 35°29' E 139°42'5 5.4
2016-Aug-24 13:33N 35°24' E 139°39'1 0.6
2016-Aug-24 12:32N 35°24' E 139°39'0 0.1
2016-Aug-24 11:32N 35°24' E 139°39'0 0.0
2016-Aug-24 10:32N 35°24' E 139°39'0 0.0
2016-Aug-24 09:29N 35°24' E 139°39'0 0.0
2016-Aug-24 08:32N 35°24' E 139°39'0 0.2
2016-Aug-24 07:33N 35°24' E 139°38'8 8.1
2016-Aug-24 06:33N 35°28' E 139°47'3 1.4
2016-Aug-24 04:33N 35°30' E 139°44'0 0.1
2016-Aug-24 03:33N 35°30' E 139°44'0 0.0
2016-Aug-24 02:33N 35°30' E 139°44'0 0.0
2016-Aug-24 01:33N 35°30' E 139°44'0 0.0
2016-Aug-24 00:33N 35°30' E 139°44'0 0.0
2016-Aug-23 23:33N 35°30' E 139°44'0 0.0
2016-Aug-23 22:33N 35°30' E 139°44'0 0.0
2016-Aug-23 21:30N 35°30' E 139°44'1 1.4
2016-Aug-23 20:33N 35°29' E 139°43'6 5.6
2016-Aug-23 19:31N 35°24' E 139°45'0 0.0
2016-Aug-23 18:31N 35°24' E 139°45'0 0.0
2016-Aug-23 17:31N 35°24' E 139°45'0 0.0
2016-Aug-23 16:31N 35°24' E 139°45'2 2.0
2016-Aug-23 15:33N 35°24' E 139°43'4 3.6
2016-Aug-23 14:30N 35°24' E 139°39'0 0.0
2016-Aug-23 13:33N 35°24' E 139°39'0 0.0
2016-Aug-23 12:33N 35°24' E 139°39'0 0.0
2016-Aug-23 11:33N 35°24' E 139°39'0 0.0
2016-Aug-23 10:30N 35°24' E 139°39'0 0.0
2016-Aug-23 09:33N 35°24' E 139°39'5 5.0
2016-Aug-23 08:33N 35°26' E 139°44'4 3.7
2016-Aug-23 07:33N 35°30' E 139°43'0 0.2
2016-Aug-23 06:33N 35°30' E 139°43'0 0.0
2016-Aug-23 05:33N 35°30' E 139°43'0 0.0
2016-Aug-23 04:33N 35°30' E 139°43'0 0.0
2016-Aug-23 03:33N 35°30' E 139°43'0 0.0
2016-Aug-23 02:33N 35°30' E 139°43'0 0.0
2016-Aug-23 01:33N 35°30' E 139°43'5 4.7
2016-Aug-23 00:33N 35°27' E 139°48'2 2.2
2016-Aug-22 23:32N 35°27' E 139°51'0 0.0
2016-Aug-22 22:32N 35°27' E 139°51'0 0.0
2016-Aug-22 21:32N 35°27' E 139°51'0 0.0
2016-Aug-22 20:29N 35°27' E 139°51'0 0.1
2016-Aug-22 19:32N 35°27' E 139°51'0 0.0
2016-Aug-22 18:32N 35°27' E 139°51'0 0.0
2016-Aug-22 17:32N 35°27' E 139°51'0 0.0
2016-Aug-22 16:32N 35°27' E 139°51'0 0.0
2016-Aug-22 15:32N 35°27' E 139°51'0 0.1
2016-Aug-22 14:33N 35°27' E 139°51'0 0.0
2016-Aug-22 13:31N 35°27' E 139°51'0 0.0
2016-Aug-22 12:32N 35°27' E 139°51'0 0.0
2016-Aug-22 11:33N 35°27' E 139°51'0 0.0
2016-Aug-22 10:33N 35°27' E 139°51'0 0.0
2016-Aug-22 09:32N 35°27' E 139°51'0 0.0
2016-Aug-22 08:27N 35°27' E 139°51'0 0.0
2016-Aug-22 07:31N 35°27' E 139°51'0 0.0
2016-Aug-22 06:34N 35°27' E 139°51'0 0.1
2016-Aug-22 05:31N 35°27' E 139°51'0 0.3
2016-Aug-22 04:33N 35°27' E 139°50'0 0.0
2016-Aug-22 03:26N 35°27' E 139°50'0 0.0
2016-Aug-22 02:31N 35°27' E 139°50'0 0.0
2016-Aug-22 01:33N 35°27' E 139°50'0 0.0
2016-Aug-22 00:32N 35°27' E 139°50'0 0.0
2016-Aug-21 23:33N 35°27' E 139°50'0 0.0
2016-Aug-21 22:31N 35°27' E 139°50'0 0.0
2016-Aug-21 21:32N 35°27' E 139°50'0 0.1
2016-Aug-21 20:32N 35°27' E 139°50'0 0.0
2016-Aug-21 19:33N 35°27' E 139°50'0 0.0
2016-Aug-21 18:33N 35°27' E 139°50'0 0.1
2016-Aug-21 17:33N 35°27' E 139°50'0 0.0
2016-Aug-21 16:30N 35°27' E 139°50'0 0.1
2016-Aug-21 15:33N 35°27' E 139°50'0 0.0
2016-Aug-21 14:30N 35°27' E 139°50'0 0.0
2016-Aug-21 13:29N 35°27' E 139°50'0 0.0
2016-Aug-21 12:32N 35°27' E 139°50'0 0.0
2016-Aug-21 11:32N 35°27' E 139°50'0 0.0
2016-Aug-21 10:32N 35°27' E 139°50'0 0.1
2016-Aug-21 09:32N 35°27' E 139°51'0 0.0
2016-Aug-21 08:32N 35°27' E 139°51'0 0.0
2016-Aug-21 07:32N 35°27' E 139°51'0 0.3
2016-Aug-21 06:33N 35°27' E 139°50'9 9.4
2016-Aug-21 05:33N 35°24' E 139°39'1 0.7
2016-Aug-21 04:33N 35°24' E 139°39'0 0.0
2016-Aug-21 03:33N 35°24' E 139°39'0 0.0
2016-Aug-21 02:33N 35°24' E 139°39'0 0.0
2016-Aug-21 01:30N 35°24' E 139°39'0 0.0
2016-Aug-21 00:33N 35°24' E 139°39'0 0.0
2016-Aug-20 23:33N 35°24' E 139°39'1 1.2
2016-Aug-20 22:33N 35°24' E 139°40'0 0.0
2016-Aug-20 21:31N 35°24' E 139°40'0 0.0
2016-Aug-20 20:31N 35°24' E 139°40'0 0.0
2016-Aug-20 19:31N 35°24' E 139°40'0 0.0
2016-Aug-20 18:31N 35°24' E 139°40'0 0.0
2016-Aug-20 17:31N 35°24' E 139°40'0 0.0
2016-Aug-20 16:31N 35°24' E 139°40'0 0.0
2016-Aug-20 15:31N 35°24' E 139°40'0 0.0
2016-Aug-20 14:31N 35°24' E 139°40'1 1.2
2016-Aug-20 13:33N 35°24' E 139°39'0 0.1
2016-Aug-20 12:33N 35°24' E 139°39'0 0.1
2016-Aug-20 11:33N 35°24' E 139°39'0 0.0
2016-Aug-20 10:33N 35°24' E 139°39'0 0.0
2016-Aug-20 09:33N 35°24' E 139°39'0 0.0
2016-Aug-20 08:33N 35°24' E 139°39'0 0.0
2016-Aug-20 07:33N 35°24' E 139°39'0 0.0
2016-Aug-20 06:33N 35°24' E 139°39'0 0.0
2016-Aug-20 05:30N 35°24' E 139°39'0 0.0
2016-Aug-20 04:33N 35°24' E 139°39'0 0.0
2016-Aug-20 03:33N 35°24' E 139°39'0 0.0
2016-Aug-20 02:33N 35°24' E 139°39'0 0.0
2016-Aug-20 01:30N 35°24' E 139°39'0 0.0
2016-Aug-20 00:33N 35°24' E 139°39'0 0.0
2016-Aug-19 23:33N 35°24' E 139°39'0 0.0
2016-Aug-19 22:33N 35°24' E 139°39'0 0.0
2016-Aug-19 21:33N 35°24' E 139°39'0 0.0
2016-Aug-19 20:33N 35°24' E 139°39'0 0.0
2016-Aug-19 19:33N 35°24' E 139°39'0 0.0
2016-Aug-19 18:33N 35°24' E 139°39'0 0.0
2016-Aug-19 17:33N 35°24' E 139°39'0 0.0
2016-Aug-19 16:33N 35°24' E 139°39'0 0.0
2016-Aug-19 15:33N 35°24' E 139°39'0 0.0
2016-Aug-19 14:33N 35°24' E 139°39'0 0.0
2016-Aug-19 13:33N 35°24' E 139°39'3 2.7
2016-Aug-19 12:33N 35°24' E 139°42'7 7.3
2016-Aug-19 11:33N 35°27' E 139°50'0 0.0
2016-Aug-19 10:32N 35°27' E 139°50'0 0.0
2016-Aug-19 09:32N 35°27' E 139°50'0 0.0
2016-Aug-19 08:32N 35°27' E 139°50'0 0.0
2016-Aug-19 07:32N 35°27' E 139°50'0 0.0
2016-Aug-19 06:32N 35°27' E 139°50'0 0.0
2016-Aug-19 05:32N 35°27' E 139°50'0 0.0
2016-Aug-19 04:32N 35°27' E 139°50'0 0.0
2016-Aug-19 03:32N 35°27' E 139°50'0 0.0
2016-Aug-19 02:32N 35°27' E 139°50'0 0.0
2016-Aug-19 01:32N 35°27' E 139°50'0 0.0
2016-Aug-19 00:32N 35°27' E 139°50'0 0.0
2016-Aug-18 23:32N 35°27' E 139°50'0 0.0
2016-Aug-18 22:32N 35°27' E 139°50'0 0.0
2016-Aug-18 21:32N 35°27' E 139°50'0 0.1
2016-Aug-18 20:32N 35°27' E 139°50'0 0.1
2016-Aug-18 19:32N 35°27' E 139°50'0 0.0
2016-Aug-18 18:29N 35°27' E 139°50'0 0.0
2016-Aug-18 17:29N 35°27' E 139°50'0 0.1
2016-Aug-18 16:32N 35°27' E 139°50'0 0.0
2016-Aug-18 15:32N 35°27' E 139°50'0 0.0
2016-Aug-18 14:32N 35°27' E 139°50'0 0.0
2016-Aug-18 13:32N 35°27' E 139°50'0 0.0
2016-Aug-18 12:32N 35°27' E 139°50'0 0.0
2016-Aug-18 11:32N 35°27' E 139°50'0 0.0
2016-Aug-18 10:32N 35°27' E 139°50'0 0.0
2016-Aug-18 09:32N 35°27' E 139°50'0 0.1
2016-Aug-18 08:32N 35°27' E 139°50'0 0.1
2016-Aug-18 07:32N 35°27' E 139°50'0 0.0
2016-Aug-18 06:32N 35°27' E 139°50'0 0.0
2016-Aug-18 05:32N 35°27' E 139°50'0 0.0
2016-Aug-18 04:32N 35°27' E 139°50'0 0.0
2016-Aug-18 03:32N 35°27' E 139°50'0 0.0
2016-Aug-18 02:32N 35°27' E 139°50'0 0.0
2016-Aug-18 01:32N 35°27' E 139°50'0 0.1
2016-Aug-18 00:32N 35°27' E 139°50'0 0.0
2016-Aug-17 23:32N 35°27' E 139°50'0 0.0
2016-Aug-17 22:32N 35°27' E 139°50'0 0.1
2016-Aug-17 21:32N 35°27' E 139°50'0 0.0
2016-Aug-17 20:29N 35°27' E 139°50'0 0.1
2016-Aug-17 19:32N 35°27' E 139°50'0 0.0
2016-Aug-17 18:32N 35°27' E 139°50'0 0.0
2016-Aug-17 17:32N 35°27' E 139°50'0 0.0
2016-Aug-17 16:32N 35°27' E 139°50'0 0.0
2016-Aug-17 15:29N 35°27' E 139°50'0 0.0
2016-Aug-17 14:32N 35°27' E 139°50'0 0.0
2016-Aug-17 13:32N 35°27' E 139°50'0 0.0
2016-Aug-17 12:33N 35°27' E 139°50'0 0.0
2016-Aug-17 11:33N 35°27' E 139°50'0 0.0
2016-Aug-17 10:32N 35°27' E 139°50'0 0.0
2016-Aug-17 09:33N 35°27' E 139°50'0 0.0
2016-Aug-17 08:33N 35°27' E 139°50'0 0.0
2016-Aug-17 07:29N 35°27' E 139°50'0 0.0
2016-Aug-17 06:33N 35°27' E 139°50'0 0.0
2016-Aug-17 05:33N 35°27' E 139°50'0 0.0
2016-Aug-17 04:33N 35°27' E 139°50'0 0.0
2016-Aug-17 03:33N 35°27' E 139°50'0 0.0
2016-Aug-17 02:34N 35°27' E 139°50'0 0.0
2016-Aug-17 01:29N 35°27' E 139°50'0 0.0
2016-Aug-17 00:32N 35°27' E 139°50'0 0.1
2016-Aug-16 23:32N 35°27' E 139°50'0 0.1
2016-Aug-16 22:32N 35°27' E 139°50'0 0.0
2016-Aug-16 21:29N 35°27' E 139°50'0 0.1
2016-Aug-16 20:33N 35°27' E 139°50'0 0.0
2016-Aug-16 19:32N 35°27' E 139°50'0 0.1
2016-Aug-16 18:33N 35°27' E 139°50'0 0.0
2016-Aug-16 17:33N 35°27' E 139°50'0 0.0
2016-Aug-16 16:32N 35°27' E 139°50'0 0.1
2016-Aug-16 15:33N 35°27' E 139°50'0 0.0
2016-Aug-16 14:33N 35°27' E 139°50'0 0.0
2016-Aug-16 13:33N 35°27' E 139°50'0 0.0
2016-Aug-16 12:33N 35°27' E 139°50'0 0.1
2016-Aug-16 11:33N 35°27' E 139°50'0 0.0
2016-Aug-16 10:33N 35°27' E 139°50'0 0.0
2016-Aug-16 09:33N 35°27' E 139°50'0 0.0
2016-Aug-16 08:33N 35°27' E 139°50'0 0.0
2016-Aug-16 07:33N 35°27' E 139°50'0 0.0
2016-Aug-16 06:33N 35°27' E 139°50'6 2.8
2016-Aug-16 04:33N 35°30' E 139°45'1 1.3
2016-Aug-16 03:32N 35°30' E 139°43'0 0.0
2016-Aug-16 02:29N 35°30' E 139°43'0 0.0
2016-Aug-16 01:32N 35°30' E 139°43'0 0.0
2016-Aug-16 00:32N 35°30' E 139°43'0 0.0
2016-Aug-15 23:32N 35°30' E 139°43'0 0.5
2016-Aug-15 22:33N 35°29' E 139°43'5 5.1
2016-Aug-15 21:33N 35°24' E 139°45'1 1.5
2016-Aug-15 20:33N 35°23' E 139°44'0 0.1
2016-Aug-15 19:33N 35°23' E 139°44'0 0.1
2016-Aug-15 18:33N 35°23' E 139°44'0 0.0
2016-Aug-15 17:33N 35°23' E 139°44'0 0.0
2016-Aug-15 16:33N 35°23' E 139°44'0 0.0
2016-Aug-15 15:33N 35°23' E 139°44'  

Dump ship's entire track history